• Join FlightAware (Why Join?)
  • Login
  • US Flag 
11:41AM EDT


 

Airport Tracker/Info


-or-


 

Live Flight TrackerFlight Track Log ✈ FLG3897 ✈ 12-Apr-2013 ✈ KCVG - KPIT

Flight Track Log - Related Links

Times and Time Zones

All times are in EDT time to prevent confusion due to time zone crossing. See the FLG3897 flight status page for this flight to view local times or setup timezone preferences in your user account.

Time Position Orientation Groundspeed Altitude Reporting Facility
EDT Latitude Longitude Course Direction KTS MPH feet Rate Location/Type
04:14PM 39.0333 -84.6667 100° East 157 181 1,700  Level Cincinnati TRACON
04:15PM 39.0167 -84.6167 113° Southeast 229 264 3,900 2,460 Climbing Cincinnati TRACON
04:16PM 39.0000 -84.5167 102° East 288 331 6,700 2,040 Climbing Cincinnati TRACON
04:17PM 38.9667 -84.4167 113° Southeast 296 341 8,300 1,800 Climbing Cincinnati TRACON
04:18PM 38.9539 -84.3439 103° East 308 354 9,700 1,620 Climbing Indianapolis Center
04:19PM 38.9233 -84.2236 108° East 354 407 11,100 1,740 Climbing Indianapolis Center
04:20PM 38.8620 -84.0010 100° East  Level FlightAware Approximate
04:20PM 38.8925 -84.0875 106° East 394 453 13,400  Level Indianapolis Center
04:21PM 38.9239 -83.9411 75° East 427 491 15,400 1,620 Climbing Indianapolis Center
04:22PM 38.9606 -83.7922 72° East 435 501 16,800 1,380 Climbing Indianapolis Center
04:23PM 38.9994 -83.6344 72° East 456 525 18,300 1,380 Climbing Indianapolis Center
04:24PM 39.0375 -83.4750 73° East 464 534 19,700 1,320 Climbing Indianapolis Center
04:25PM 39.0836 -83.2836 73° East 475 547 21,100 1,140 Climbing Indianapolis Center
04:26PM 39.1208 -83.1250 73° East 485 558 22,100 900 Climbing Indianapolis Center
04:27PM 39.1608 -82.9550 73° East 492 566 23,000 840 Climbing Indianapolis Center
04:28PM 39.1892 -82.7697 79° East 495 570 23,900 900 Climbing Indianapolis Center
04:29PM 39.1883 -82.5942 90° East 488 562 24,900 960 Climbing Indianapolis Center
04:30PM 39.1856 -82.3936 91° East 491 565 26,000 960 Climbing Indianapolis Center
04:31PM 39.1836 -82.2192 91° East 487 560 26,900 480 Climbing Indianapolis Center
04:32PM 39.2317 -82.0461 70° East 524 603 27,000 -600 Climbing Indianapolis Center
04:33PM 39.3006 -81.8756 62° Northeast 533 613 25,700 -1,440 Descending Indianapolis Center
04:34PM 39.3694 -81.7056 62° Northeast 530 610 24,100 -1,500 Descending Indianapolis Center
04:36PM 39.4336 -81.5447 63° Northeast 506 582 22,600 -1,500 Descending Indianapolis Center
04:36PM 39.5036 -81.3739 62° Northeast 494 568 21,100 -840 Descending Cleveland Center
04:37PM 39.5836 -81.2375 53° Northeast 480 552 21,000 -1,020 Descending Cleveland Center
04:38PM 39.6822 -81.1361 38° Northeast 460 529 19,100 -2,100 Descending Cleveland Center
04:39PM 39.7764 -81.0394 38° Northeast 442 509 16,800 -2,160 Descending Cleveland Center
04:40PM 39.8664 -80.9481 38° Northeast 424 488 14,800 -1,980 Descending Cleveland Center
04:41PM 39.9522 -80.8592 38° Northeast 413 475 12,900 -1,920 Descending Cleveland Center
04:42PM 40.0336 -80.7675 41° Northeast 401 461 11,000 -1,500 Descending Cleveland Center
04:43PM 40.1131 -80.6753 42° Northeast 390 449 10,000 -540 Descending Cleveland Center
04:44PM 40.1861 -80.5911 41° Northeast 372 428 10,000 -420 Level Cleveland Center
04:45PM 40.2569 -80.5122 40° Northeast 344 396 9,200 -960 Descending Cleveland Center
04:46PM 40.3233 -80.4306 43° Northeast 332 382 8,100 -1,140 Descending Cleveland Center
04:47PM 40.3567 -80.3461 63° Northeast 301 346 7,000 -1,440 Descending Cleveland Center
04:48PM 40.3756 -80.2925 65° Northeast 292 336 6,000 -1,260 Descending FAA TRACON SMA TRACON (SMA)
04:48PM 40.3878 -80.2578 65° Northeast 292 336 6,000 -180 Level FAA TRACON SMA TRACON (SMA)
04:49PM 40.3972 -80.2247 69° East 287 330 5,900 -960 Descending FAA TRACON SMA TRACON (SMA)
04:49PM 40.4031 -80.1942 76° East 289 333 5,400 -1,680 Descending FAA TRACON SMA TRACON (SMA)
04:49PM 40.4100 -80.1553 77° East 283 326 4,800 -1,500 Descending FAA TRACON SMA TRACON (SMA)
04:50PM 40.4133 -80.1244 82° East 282 325 4,400 -840 Descending FAA TRACON SMA TRACON (SMA)
04:50PM 40.4164 -80.0550 87° East 274 315 4,000 -540 Descending FAA TRACON SMA TRACON (SMA)
04:51PM 40.4236 -80.0272 71° East 272 313 3,900  Descending FAA TRACON SMA TRACON (SMA)
04:51PM 40.4406 -80.0106 37° Northeast 240 276 4,000  Climbing FAA TRACON SMA TRACON (SMA)
04:51PM 40.4664 -80.0128 356° North 233 268 3,900 -600 Descending FAA TRACON SMA TRACON (SMA)
04:52PM 40.4797 -80.0300 316° Northwest 219 252 3,600 -1,080 Descending FAA TRACON SMA TRACON (SMA)
04:52PM 40.4822 -80.0533 278° West 206 237 3,200 -1,080 Descending FAA TRACON SMA TRACON (SMA)
04:52PM 40.4814 -80.0817 268° West 197 227 2,900 -840 Descending FAA TRACON SMA TRACON (SMA)
04:53PM 40.4822 -80.1206 272° West 163 188 2,400 -720 Descending FAA TRACON SMA TRACON (SMA)
04:53PM 40.4831 -80.1408 273° West 141 162 2,200 -780 Descending FAA TRACON SMA TRACON (SMA)
04:54PM 40.4836 -80.1550 273° West 125 144 1,900 -600 Descending FAA TRACON SMA TRACON (SMA)
04:54PM 40.4842 -80.1683 273° West 121 139 1,800 -600 Descending FAA TRACON SMA TRACON (SMA)
04:54PM 40.4847 -80.1856 272° West 122 140 1,500 -960 Descending FAA TRACON SMA TRACON (SMA)